sensor_id;sensor_type;location;lat;lon;timestamp;temperature;humidity
2935;DHT22;2462;51.456;7.248;2022-09-12T00:02:24;15.60;99.90
2935;DHT22;2462;51.456;7.248;2022-09-12T00:04:49;15.60;99.90
2935;DHT22;2462;51.456;7.248;2022-09-12T00:07:15;15.60;99.90
2935;DHT22;2462;51.456;7.248;2022-09-12T00:09:41;15.60;99.90
2935;DHT22;2462;51.456;7.248;2022-09-12T00:12:07;15.60;99.90
2935;DHT22;2462;51.456;7.248;2022-09-12T00:14:33;15.50;99.90
2935;DHT22;2462;51.456;7.248;2022-09-12T00:16:58;15.50;99.90
2935;DHT22;2462;51.456;7.248;2022-09-12T00:19:25;15.50;99.90
2935;DHT22;2462;51.456;7.248;2022-09-12T00:21:51;15.50;99.90
2935;DHT22;2462;51.456;7.248;2022-09-12T00:24:16;15.50;99.90
2935;DHT22;2462;51.456;7.248;2022-09-12T00:26:42;15.50;99.90
2935;DHT22;2462;51.456;7.248;2022-09-12T00:29:08;15.50;99.90
2935;DHT22;2462;51.456;7.248;2022-09-12T00:31:35;15.50;99.90
2935;DHT22;2462;51.456;7.248;2022-09-12T00:34:01;15.50;99.90
2935;DHT22;2462;51.456;7.248;2022-09-12T00:36:27;15.50;99.90
2935;DHT22;2462;51.456;7.248;2022-09-12T00:38:53;15.50;99.90
2935;DHT22;2462;51.456;7.248;2022-09-12T00:41:34;15.40;99.90
2935;DHT22;2462;51.456;7.248;2022-09-12T00:47:16;15.40;99.90
2935;DHT22;2462;51.456;7.248;2022-09-12T00:49:49;15.50;99.90
2935;DHT22;2462;51.456;7.248;2022-09-12T00:52:25;15.40;99.90
2935;DHT22;2462;51.456;7.248;2022-09-12T00:54:59;15.40;99.90
2935;DHT22;2462;51.456;7.248;2022-09-12T00:57:31;15.40;99.90
2935;DHT22;2462;51.456;7.248;2022-09-12T01:00:03;15.40;99.90
2935;DHT22;2462;51.456;7.248;2022-09-12T01:02:30;15.40;99.90
2935;DHT22;2462;51.456;7.248;2022-09-12T01:04:56;15.40;99.90
2935;DHT22;2462;51.456;7.248;2022-09-12T01:07:21;15.30;99.90
2935;DHT22;2462;51.456;7.248;2022-09-12T01:09:47;15.30;99.90
2935;DHT22;2462;51.456;7.248;2022-09-12T01:12:14;15.30;99.90
2935;DHT22;2462;51.456;7.248;2022-09-12T01:14:40;15.30;99.90
2935;DHT22;2462;51.456;7.248;2022-09-12T01:17:05;15.30;99.90
2935;DHT22;2462;51.456;7.248;2022-09-12T01:19:43;15.30;99.90
2935;DHT22;2462;51.456;7.248;2022-09-12T01:33:38;15.20;99.90
2935;DHT22;2462;51.456;7.248;2022-09-12T01:36:31;15.20;99.90
2935;DHT22;2462;51.456;7.248;2022-09-12T01:39:05;15.20;99.90
2935;DHT22;2462;51.456;7.248;2022-09-12T01:41:42;15.20;99.90
2935;DHT22;2462;51.456;7.248;2022-09-12T01:47:40;15.20;99.90
2935;DHT22;2462;51.456;7.248;2022-09-12T01:50:02;15.20;99.90
2935;DHT22;2462;51.456;7.248;2022-09-12T01:52:44;15.10;99.90
2935;DHT22;2462;51.456;7.248;2022-09-12T01:55:17;15.10;99.90
2935;DHT22;2462;51.456;7.248;2022-09-12T01:58:06;15.10;99.90
2935;DHT22;2462;51.456;7.248;2022-09-12T02:00:36;15.10;99.90
2935;DHT22;2462;51.456;7.248;2022-09-12T02:03:13;15.10;99.90
2935;DHT22;2462;51.456;7.248;2022-09-12T02:05:49;15.10;99.90
2935;DHT22;2462;51.456;7.248;2022-09-12T02:08:21;15.10;99.90
2935;DHT22;2462;51.456;7.248;2022-09-12T02:13:35;15.00;99.90
2935;DHT22;2462;51.456;7.248;2022-09-12T02:16:10;15.00;99.90
2935;DHT22;2462;51.456;7.248;2022-09-12T02:18:40;15.00;99.90
2935;DHT22;2462;51.456;7.248;2022-09-12T02:21:09;15.00;99.90
2935;DHT22;2462;51.456;7.248;2022-09-12T02:23:38;15.00;99.90
2935;DHT22;2462;51.456;7.248;2022-09-12T02:26:43;15.00;99.90
2935;DHT22;2462;51.456;7.248;2022-09-12T02:29:02;15.00;99.90
2935;DHT22;2462;51.456;7.248;2022-09-12T02:31:33;15.00;99.90
2935;DHT22;2462;51.456;7.248;2022-09-12T02:39:32;14.90;99.90
2935;DHT22;2462;51.456;7.248;2022-09-12T02:41:59;14.90;99.90
2935;DHT22;2462;51.456;7.248;2022-09-12T02:44:27;14.90;99.90
2935;DHT22;2462;51.456;7.248;2022-09-12T02:46:58;14.90;99.90
2935;DHT22;2462;51.456;7.248;2022-09-12T02:49:25;14.90;99.90
2935;DHT22;2462;51.456;7.248;2022-09-12T02:51:51;14.90;99.90
2935;DHT22;2462;51.456;7.248;2022-09-12T02:54:17;14.80;99.90
2935;DHT22;2462;51.456;7.248;2022-09-12T02:56:44;14.90;99.90
2935;DHT22;2462;51.456;7.248;2022-09-12T02:59:16;14.80;99.90
2935;DHT22;2462;51.456;7.248;2022-09-12T03:02:06;14.80;99.90
2935;DHT22;2462;51.456;7.248;2022-09-12T03:10:58;14.80;99.90
2935;DHT22;2462;51.456;7.248;2022-09-12T03:14:06;14.80;99.90
2935;DHT22;2462;51.456;7.248;2022-09-12T03:19:51;14.80;99.90
2935;DHT22;2462;51.456;7.248;2022-09-12T03:23:14;14.70;99.90
2935;DHT22;2462;51.456;7.248;2022-09-12T03:25:21;14.70;99.90
2935;DHT22;2462;51.456;7.248;2022-09-12T03:28:06;14.70;99.90
2935;DHT22;2462;51.456;7.248;2022-09-12T03:30:41;14.70;99.90
2935;DHT22;2462;51.456;7.248;2022-09-12T03:33:10;14.70;99.90
2935;DHT22;2462;51.456;7.248;2022-09-12T03:35:35;14.70;99.90
2935;DHT22;2462;51.456;7.248;2022-09-12T03:38:01;14.70;99.90
2935;DHT22;2462;51.456;7.248;2022-09-12T03:40:27;14.60;99.90
2935;DHT22;2462;51.456;7.248;2022-09-12T03:42:52;14.60;99.90
2935;DHT22;2462;51.456;7.248;2022-09-12T03:45:18;14.60;99.90
2935;DHT22;2462;51.456;7.248;2022-09-12T03:47:43;14.60;99.90
2935;DHT22;2462;51.456;7.248;2022-09-12T03:50:09;14.60;99.90
2935;DHT22;2462;51.456;7.248;2022-09-12T03:52:34;14.60;99.90
2935;DHT22;2462;51.456;7.248;2022-09-12T03:55:00;14.60;99.90
2935;DHT22;2462;51.456;7.248;2022-09-12T03:57:26;14.60;99.90
2935;DHT22;2462;51.456;7.248;2022-09-12T03:59:51;14.50;99.90
2935;DHT22;2462;51.456;7.248;2022-09-12T04:02:17;14.50;99.90
2935;DHT22;2462;51.456;7.248;2022-09-12T04:04:43;14.50;99.90
2935;DHT22;2462;51.456;7.248;2022-09-12T04:07:09;14.50;99.90
2935;DHT22;2462;51.456;7.248;2022-09-12T04:09:35;14.50;99.90
2935;DHT22;2462;51.456;7.248;2022-09-12T04:12:01;14.50;99.90
2935;DHT22;2462;51.456;7.248;2022-09-12T04:14:26;14.50;99.90
2935;DHT22;2462;51.456;7.248;2022-09-12T04:16:52;14.50;99.90
2935;DHT22;2462;51.456;7.248;2022-09-12T04:19:18;14.50;99.90
2935;DHT22;2462;51.456;7.248;2022-09-12T04:21:43;14.50;99.90
2935;DHT22;2462;51.456;7.248;2022-09-12T04:24:09;14.50;99.90
2935;DHT22;2462;51.456;7.248;2022-09-12T04:26:34;14.50;99.90
2935;DHT22;2462;51.456;7.248;2022-09-12T04:29:00;14.40;99.90
2935;DHT22;2462;51.456;7.248;2022-09-12T04:31:25;14.40;99.90
2935;DHT22;2462;51.456;7.248;2022-09-12T04:33:59;14.50;99.90
2935;DHT22;2462;51.456;7.248;2022-09-12T04:36:26;14.40;99.90
2935;DHT22;2462;51.456;7.248;2022-09-12T04:38:52;14.40;99.90
2935;DHT22;2462;51.456;7.248;2022-09-12T04:41:23;14.40;99.90
2935;DHT22;2462;51.456;7.248;2022-09-12T04:43:59;14.40;99.90
2935;DHT22;2462;51.456;7.248;2022-09-12T04:46:34;14.40;99.90
2935;DHT22;2462;51.456;7.248;2022-09-12T04:49:00;14.40;99.90
2935;DHT22;2462;51.456;7.248;2022-09-12T04:51:28;14.40;99.90
2935;DHT22;2462;51.456;7.248;2022-09-12T04:53:57;14.40;99.90
2935;DHT22;2462;51.456;7.248;2022-09-12T04:56:23;14.40;99.90
2935;DHT22;2462;51.456;7.248;2022-09-12T04:58:49;14.40;99.90
2935;DHT22;2462;51.456;7.248;2022-09-12T05:01:17;14.40;99.90
2935;DHT22;2462;51.456;7.248;2022-09-12T05:03:44;14.40;99.90
2935;DHT22;2462;51.456;7.248;2022-09-12T05:06:18;14.30;99.90
2935;DHT22;2462;51.456;7.248;2022-09-12T05:08:44;14.30;99.90
2935;DHT22;2462;51.456;7.248;2022-09-12T05:11:13;14.30;99.90
2935;DHT22;2462;51.456;7.248;2022-09-12T05:13:39;14.30;99.90
2935;DHT22;2462;51.456;7.248;2022-09-12T05:16:05;14.30;99.90
2935;DHT22;2462;51.456;7.248;2022-09-12T05:18:33;14.30;99.90
2935;DHT22;2462;51.456;7.248;2022-09-12T05:20:59;14.30;99.90
2935;DHT22;2462;51.456;7.248;2022-09-12T05:23:26;14.30;99.90
2935;DHT22;2462;51.456;7.248;2022-09-12T05:25:53;14.30;99.90
2935;DHT22;2462;51.456;7.248;2022-09-12T05:28:21;14.30;99.90
2935;DHT22;2462;51.456;7.248;2022-09-12T05:30:47;14.30;99.90
2935;DHT22;2462;51.456;7.248;2022-09-12T05:33:13;14.30;99.90
2935;DHT22;2462;51.456;7.248;2022-09-12T05:35:39;14.30;99.90
2935;DHT22;2462;51.456;7.248;2022-09-12T05:38:05;14.30;99.90
2935;DHT22;2462;51.456;7.248;2022-09-12T05:40:32;14.30;99.90
2935;DHT22;2462;51.456;7.248;2022-09-12T05:42:57;14.30;99.90
2935;DHT22;2462;51.456;7.248;2022-09-12T05:45:23;14.30;99.90
2935;DHT22;2462;51.456;7.248;2022-09-12T05:47:48;14.30;99.90
2935;DHT22;2462;51.456;7.248;2022-09-12T05:50:14;14.30;99.90
2935;DHT22;2462;51.456;7.248;2022-09-12T05:52:40;14.30;99.90
2935;DHT22;2462;51.456;7.248;2022-09-12T05:55:06;14.40;99.90
2935;DHT22;2462;51.456;7.248;2022-09-12T05:57:32;14.40;99.90
2935;DHT22;2462;51.456;7.248;2022-09-12T05:59:57;14.40;99.90
2935;DHT22;2462;51.456;7.248;2022-09-12T06:02:23;14.40;99.90
2935;DHT22;2462;51.456;7.248;2022-09-12T06:04:49;14.40;99.90
2935;DHT22;2462;51.456;7.248;2022-09-12T06:07:14;14.40;99.90
2935;DHT22;2462;51.456;7.248;2022-09-12T06:09:40;14.40;99.90
2935;DHT22;2462;51.456;7.248;2022-09-12T06:12:05;14.40;99.90
2935;DHT22;2462;51.456;7.248;2022-09-12T06:14:33;14.50;99.90
2935;DHT22;2462;51.456;7.248;2022-09-12T06:16:58;14.50;99.90
2935;DHT22;2462;51.456;7.248;2022-09-12T06:19:24;14.50;99.90
2935;DHT22;2462;51.456;7.248;2022-09-12T06:21:52;14.50;99.90
2935;DHT22;2462;51.456;7.248;2022-09-12T06:24:19;14.60;99.90
2935;DHT22;2462;51.456;7.248;2022-09-12T06:26:45;14.60;99.90
2935;DHT22;2462;51.456;7.248;2022-09-12T06:29:11;14.70;99.90
2935;DHT22;2462;51.456;7.248;2022-09-12T06:31:39;14.70;99.90
2935;DHT22;2462;51.456;7.248;2022-09-12T06:34:08;14.70;99.90
2935;DHT22;2462;51.456;7.248;2022-09-12T06:36:37;14.70;99.90
2935;DHT22;2462;51.456;7.248;2022-09-12T06:39:05;14.80;99.90
2935;DHT22;2462;51.456;7.248;2022-09-12T06:41:32;14.80;99.90
2935;DHT22;2462;51.456;7.248;2022-09-12T06:43:59;14.80;99.90
2935;DHT22;2462;51.456;7.248;2022-09-12T06:46:25;14.80;99.90
2935;DHT22;2462;51.456;7.248;2022-09-12T06:48:52;14.80;99.90
2935;DHT22;2462;51.456;7.248;2022-09-12T06:51:19;14.90;99.90
2935;DHT22;2462;51.456;7.248;2022-09-12T06:53:45;14.90;99.90
2935;DHT22;2462;51.456;7.248;2022-09-12T06:56:17;14.90;99.90
2935;DHT22;2462;51.456;7.248;2022-09-12T06:58:44;15.00;99.90
2935;DHT22;2462;51.456;7.248;2022-09-12T07:01:16;15.00;99.90
2935;DHT22;2462;51.456;7.248;2022-09-12T07:03:46;15.00;99.90
2935;DHT22;2462;51.456;7.248;2022-09-12T07:06:14;15.00;99.90
2935;DHT22;2462;51.456;7.248;2022-09-12T07:08:40;15.10;99.90
2935;DHT22;2462;51.456;7.248;2022-09-12T07:11:23;15.10;99.90
2935;DHT22;2462;51.456;7.248;2022-09-12T07:13:54;15.10;99.90
2935;DHT22;2462;51.456;7.248;2022-09-12T07:16:20;15.20;99.90
2935;DHT22;2462;51.456;7.248;2022-09-12T07:18:51;15.20;99.90
2935;DHT22;2462;51.456;7.248;2022-09-12T07:21:16;15.20;99.90
2935;DHT22;2462;51.456;7.248;2022-09-12T07:23:42;15.30;99.90
2935;DHT22;2462;51.456;7.248;2022-09-12T07:26:12;15.30;99.90
2935;DHT22;2462;51.456;7.248;2022-09-12T07:28:39;15.30;99.90
2935;DHT22;2462;51.456;7.248;2022-09-12T07:31:13;15.30;99.90
2935;DHT22;2462;51.456;7.248;2022-09-12T07:33:39;15.40;99.90
2935;DHT22;2462;51.456;7.248;2022-09-12T07:36:09;15.40;99.90
2935;DHT22;2462;51.456;7.248;2022-09-12T07:38:36;15.50;99.90
2935;DHT22;2462;51.456;7.248;2022-09-12T07:41:13;15.40;99.90
2935;DHT22;2462;51.456;7.248;2022-09-12T07:43:40;15.50;99.90
2935;DHT22;2462;51.456;7.248;2022-09-12T07:46:09;15.50;99.90
2935;DHT22;2462;51.456;7.248;2022-09-12T07:48:35;15.50;99.90
2935;DHT22;2462;51.456;7.248;2022-09-12T07:51:03;15.60;99.90
2935;DHT22;2462;51.456;7.248;2022-09-12T07:53:34;15.60;99.90
2935;DHT22;2462;51.456;7.248;2022-09-12T07:56:01;15.60;99.90
2935;DHT22;2462;51.456;7.248;2022-09-12T07:58:28;15.60;99.90
2935;DHT22;2462;51.456;7.248;2022-09-12T08:01:01;15.60;99.90
2935;DHT22;2462;51.456;7.248;2022-09-12T08:03:26;15.70;99.90
2935;DHT22;2462;51.456;7.248;2022-09-12T08:05:52;15.70;99.90
2935;DHT22;2462;51.456;7.248;2022-09-12T08:08:17;15.80;99.90
2935;DHT22;2462;51.456;7.248;2022-09-12T08:10:43;15.80;99.90
2935;DHT22;2462;51.456;7.248;2022-09-12T08:13:08;15.80;99.90
2935;DHT22;2462;51.456;7.248;2022-09-12T08:15:34;15.90;99.90
2935;DHT22;2462;51.456;7.248;2022-09-12T08:17:59;15.90;99.90
2935;DHT22;2462;51.456;7.248;2022-09-12T08:20:25;15.90;99.90
2935;DHT22;2462;51.456;7.248;2022-09-12T08:22:51;16.00;99.90
2935;DHT22;2462;51.456;7.248;2022-09-12T08:25:16;16.00;99.90
2935;DHT22;2462;51.456;7.248;2022-09-12T08:27:42;16.00;99.90
2935;DHT22;2462;51.456;7.248;2022-09-12T08:30:08;16.10;99.90
2935;DHT22;2462;51.456;7.248;2022-09-12T08:32:34;16.10;99.90
2935;DHT22;2462;51.456;7.248;2022-09-12T08:35:00;16.10;99.90
2935;DHT22;2462;51.456;7.248;2022-09-12T08:37:29;16.20;99.90
2935;DHT22;2462;51.456;7.248;2022-09-12T08:39:54;16.20;99.90
2935;DHT22;2462;51.456;7.248;2022-09-12T08:45:28;16.30;99.90
2935;DHT22;2462;51.456;7.248;2022-09-12T08:47:55;16.30;99.90
2935;DHT22;2462;51.456;7.248;2022-09-12T08:50:21;16.30;99.90
2935;DHT22;2462;51.456;7.248;2022-09-12T08:55:37;16.40;99.90
2935;DHT22;2462;51.456;7.248;2022-09-12T08:58:19;16.40;99.90
2935;DHT22;2462;51.456;7.248;2022-09-12T09:04:03;16.50;99.90
2935;DHT22;2462;51.456;7.248;2022-09-12T09:07:02;16.50;99.90
2935;DHT22;2462;51.456;7.248;2022-09-12T09:12:48;16.60;99.90
2935;DHT22;2462;51.456;7.248;2022-09-12T09:18:03;16.70;99.90
2935;DHT22;2462;51.456;7.248;2022-09-12T09:20:44;16.70;99.90
2935;DHT22;2462;51.456;7.248;2022-09-12T09:26:07;16.80;99.90
2935;DHT22;2462;51.456;7.248;2022-09-12T09:28:45;16.80;99.90
2935;DHT22;2462;51.456;7.248;2022-09-12T09:31:20;16.90;99.90
2935;DHT22;2462;51.456;7.248;2022-09-12T09:33:48;16.90;99.90
2935;DHT22;2462;51.456;7.248;2022-09-12T09:36:41;16.90;99.90
2935;DHT22;2462;51.456;7.248;2022-09-12T09:44:58;17.10;99.90
2935;DHT22;2462;51.456;7.248;2022-09-12T09:47:24;17.10;99.90
2935;DHT22;2462;51.456;7.248;2022-09-12T09:49:50;17.20;99.90
2935;DHT22;2462;51.456;7.248;2022-09-12T09:52:23;17.20;99.90
2935;DHT22;2462;51.456;7.248;2022-09-12T09:54:54;17.20;99.90
2935;DHT22;2462;51.456;7.248;2022-09-12T10:05:28;17.40;99.90
2935;DHT22;2462;51.456;7.248;2022-09-12T10:07:54;17.50;99.90
2935;DHT22;2462;51.456;7.248;2022-09-12T10:10:20;17.50;99.90
2935;DHT22;2462;51.456;7.248;2022-09-12T10:12:50;17.60;99.90
2935;DHT22;2462;51.456;7.248;2022-09-12T10:17:47;17.70;99.90
2935;DHT22;2462;51.456;7.248;2022-09-12T10:20:34;17.70;99.90
2935;DHT22;2462;51.456;7.248;2022-09-12T10:25:55;17.80;99.90
2935;DHT22;2462;51.456;7.248;2022-09-12T10:28:24;17.90;99.90
2935;DHT22;2462;51.456;7.248;2022-09-12T10:30:53;18.00;99.90
2935;DHT22;2462;51.456;7.248;2022-09-12T10:33:20;18.00;99.90
2935;DHT22;2462;51.456;7.248;2022-09-12T10:35:48;18.10;99.90
2935;DHT22;2462;51.456;7.248;2022-09-12T10:38:23;18.10;99.90
2935;DHT22;2462;51.456;7.248;2022-09-12T10:41:07;18.20;99.90
2935;DHT22;2462;51.456;7.248;2022-09-12T10:43:36;18.20;99.90
2935;DHT22;2462;51.456;7.248;2022-09-12T10:48:46;18.30;99.90
2935;DHT22;2462;51.456;7.248;2022-09-12T10:53:54;18.30;99.90
2935;DHT22;2462;51.456;7.248;2022-09-12T10:56:23;18.40;99.90
2935;DHT22;2462;51.456;7.248;2022-09-12T11:01:42;18.40;99.90
2935;DHT22;2462;51.456;7.248;2022-09-12T11:04:28;18.50;99.90
2935;DHT22;2462;51.456;7.248;2022-09-12T11:10:28;18.50;99.90
2935;DHT22;2462;51.456;7.248;2022-09-12T11:19:10;18.60;99.90
2935;DHT22;2462;51.456;7.248;2022-09-12T11:30:25;18.80;99.90
2935;DHT22;2462;51.456;7.248;2022-09-12T11:35:50;18.80;99.90
2935;DHT22;2462;51.456;7.248;2022-09-12T11:38:46;18.90;99.90
2935;DHT22;2462;51.456;7.248;2022-09-12T11:41:40;18.90;99.90
2935;DHT22;2462;51.456;7.248;2022-09-12T11:44:40;19.00;99.90
2935;DHT22;2462;51.456;7.248;2022-09-12T11:47:10;19.00;99.90
2935;DHT22;2462;51.456;7.248;2022-09-12T11:49:44;19.00;99.90
2935;DHT22;2462;51.456;7.248;2022-09-12T11:52:23;19.00;99.90
2935;DHT22;2462;51.456;7.248;2022-09-12T12:00:02;19.10;99.90
2935;DHT22;2462;51.456;7.248;2022-09-12T12:02:33;19.20;99.90
2935;DHT22;2462;51.456;7.248;2022-09-12T12:07:53;19.20;99.90
2935;DHT22;2462;51.456;7.248;2022-09-12T12:13:04;19.30;99.90
2935;DHT22;2462;51.456;7.248;2022-09-12T12:15:34;19.40;99.90
2935;DHT22;2462;51.456;7.248;2022-09-12T12:18:07;19.40;99.90
2935;DHT22;2462;51.456;7.248;2022-09-12T12:20:40;19.40;99.90
2935;DHT22;2462;51.456;7.248;2022-09-12T12:23:05;19.50;99.90
2935;DHT22;2462;51.456;7.248;2022-09-12T12:25:40;19.50;99.90
2935;DHT22;2462;51.456;7.248;2022-09-12T12:31:03;19.60;99.90
2935;DHT22;2462;51.456;7.248;2022-09-12T12:38:31;19.60;99.90
2935;DHT22;2462;51.456;7.248;2022-09-12T12:43:51;19.70;99.90
2935;DHT22;2462;51.456;7.248;2022-09-12T12:46:22;19.70;99.90
2935;DHT22;2462;51.456;7.248;2022-09-12T12:48:52;19.70;99.90
2935;DHT22;2462;51.456;7.248;2022-09-12T12:51:45;19.70;99.90
2935;DHT22;2462;51.456;7.248;2022-09-12T12:54:31;19.80;99.90
2935;DHT22;2462;51.456;7.248;2022-09-12T12:57:28;19.80;99.90
2935;DHT22;2462;51.456;7.248;2022-09-12T13:00:01;19.80;99.90
2935;DHT22;2462;51.456;7.248;2022-09-12T13:02:35;19.90;99.90
2935;DHT22;2462;51.456;7.248;2022-09-12T13:05:09;19.90;99.90
2935;DHT22;2462;51.456;7.248;2022-09-12T13:07:40;19.90;99.90
2935;DHT22;2462;51.456;7.248;2022-09-12T13:10:20;19.90;99.90
2935;DHT22;2462;51.456;7.248;2022-09-12T13:12:47;20.00;99.90
2935;DHT22;2462;51.456;7.248;2022-09-12T13:18:01;20.00;99.90
2935;DHT22;2462;51.456;7.248;2022-09-12T13:20:31;20.00;99.90
2935;DHT22;2462;51.456;7.248;2022-09-12T13:22:58;20.10;99.90
2935;DHT22;2462;51.456;7.248;2022-09-12T13:30:22;20.10;99.90
2935;DHT22;2462;51.456;7.248;2022-09-12T13:32:47;20.10;99.90
2935;DHT22;2462;51.456;7.248;2022-09-12T13:35:30;20.20;99.90
2935;DHT22;2462;51.456;7.248;2022-09-12T13:43:41;20.30;99.90
2935;DHT22;2462;51.456;7.248;2022-09-12T13:46:08;20.30;99.90
2935;DHT22;2462;51.456;7.248;2022-09-12T13:48:35;20.30;99.90
2935;DHT22;2462;51.456;7.248;2022-09-12T13:51:01;20.30;99.90
2935;DHT22;2462;51.456;7.248;2022-09-12T13:53:46;20.30;99.90
2935;DHT22;2462;51.456;7.248;2022-09-12T13:56:19;20.40;99.90
2935;DHT22;2462;51.456;7.248;2022-09-12T13:58:59;20.40;99.90
2935;DHT22;2462;51.456;7.248;2022-09-12T14:01:57;20.40;99.90
2935;DHT22;2462;51.456;7.248;2022-09-12T14:04:25;20.50;99.90
2935;DHT22;2462;51.456;7.248;2022-09-12T14:07:20;20.50;99.90
2935;DHT22;2462;51.456;7.248;2022-09-12T14:09:55;20.50;99.90
2935;DHT22;2462;51.456;7.248;2022-09-12T14:12:33;20.60;99.90
2935;DHT22;2462;51.456;7.248;2022-09-12T14:15:00;20.60;99.90
2935;DHT22;2462;51.456;7.248;2022-09-12T14:17:37;20.60;99.90
2935;DHT22;2462;51.456;7.248;2022-09-12T14:20:13;20.70;99.90
2935;DHT22;2462;51.456;7.248;2022-09-12T14:22:39;20.70;99.90
2935;DHT22;2462;51.456;7.248;2022-09-12T14:25:06;20.70;99.90
2935;DHT22;2462;51.456;7.248;2022-09-12T14:27:42;20.80;99.90
2935;DHT22;2462;51.456;7.248;2022-09-12T14:30:25;20.80;99.90
2935;DHT22;2462;51.456;7.248;2022-09-12T14:35:39;20.80;99.90
2935;DHT22;2462;51.456;7.248;2022-09-12T14:38:36;20.90;99.90
2935;DHT22;2462;51.456;7.248;2022-09-12T14:41:09;20.90;99.90
2935;DHT22;2462;51.456;7.248;2022-09-12T14:43:38;20.90;99.90
2935;DHT22;2462;51.456;7.248;2022-09-12T14:46:16;21.00;99.90
2935;DHT22;2462;51.456;7.248;2022-09-12T14:48:48;21.00;99.90
2935;DHT22;2462;51.456;7.248;2022-09-12T14:51:26;21.10;99.90
2935;DHT22;2462;51.456;7.248;2022-09-12T14:53:53;21.10;99.90
2935;DHT22;2462;51.456;7.248;2022-09-12T14:56:39;21.20;99.90
2935;DHT22;2462;51.456;7.248;2022-09-12T14:59:35;21.20;99.90
2935;DHT22;2462;51.456;7.248;2022-09-12T15:04:47;21.30;99.90
2935;DHT22;2462;51.456;7.248;2022-09-12T15:10:17;21.30;99.90
2935;DHT22;2462;51.456;7.248;2022-09-12T15:12:46;21.30;99.90
2935;DHT22;2462;51.456;7.248;2022-09-12T15:15:14;21.30;99.90
2935;DHT22;2462;51.456;7.248;2022-09-12T15:17:40;21.30;99.90
2935;DHT22;2462;51.456;7.248;2022-09-12T15:20:06;21.30;99.90
2935;DHT22;2462;51.456;7.248;2022-09-12T15:22:33;21.30;99.90
2935;DHT22;2462;51.456;7.248;2022-09-12T15:24:59;21.30;99.90
2935;DHT22;2462;51.456;7.248;2022-09-12T15:27:25;21.30;99.90
2935;DHT22;2462;51.456;7.248;2022-09-12T15:29:54;21.30;99.90
2935;DHT22;2462;51.456;7.248;2022-09-12T15:32:24;21.20;99.90
2935;DHT22;2462;51.456;7.248;2022-09-12T15:34:50;21.20;99.90
2935;DHT22;2462;51.456;7.248;2022-09-12T15:37:17;21.10;99.90
2935;DHT22;2462;51.456;7.248;2022-09-12T15:39:43;21.10;99.90
2935;DHT22;2462;51.456;7.248;2022-09-12T15:42:10;21.10;99.90
2935;DHT22;2462;51.456;7.248;2022-09-12T15:44:36;21.10;99.90
2935;DHT22;2462;51.456;7.248;2022-09-12T15:47:02;21.00;99.90
2935;DHT22;2462;51.456;7.248;2022-09-12T15:49:27;21.00;99.90
2935;DHT22;2462;51.456;7.248;2022-09-12T15:51:54;21.00;99.90
2935;DHT22;2462;51.456;7.248;2022-09-12T15:54:19;21.00;99.90
2935;DHT22;2462;51.456;7.248;2022-09-12T15:56:45;20.90;99.90
2935;DHT22;2462;51.456;7.248;2022-09-12T15:59:11;20.90;99.90
2935;DHT22;2462;51.456;7.248;2022-09-12T16:01:38;20.90;99.90
2935;DHT22;2462;51.456;7.248;2022-09-12T16:09:07;20.80;99.90
2935;DHT22;2462;51.456;7.248;2022-09-12T16:11:33;20.80;99.90
2935;DHT22;2462;51.456;7.248;2022-09-12T16:13:58;20.80;99.90
2935;DHT22;2462;51.456;7.248;2022-09-12T16:16:24;20.80;99.90
2935;DHT22;2462;51.456;7.248;2022-09-12T16:18:49;20.70;99.90
2935;DHT22;2462;51.456;7.248;2022-09-12T16:21:22;20.70;99.90
2935;DHT22;2462;51.456;7.248;2022-09-12T16:23:49;20.70;99.90
2935;DHT22;2462;51.456;7.248;2022-09-12T16:26:15;20.70;99.90
2935;DHT22;2462;51.456;7.248;2022-09-12T16:28:41;20.70;99.90
2935;DHT22;2462;51.456;7.248;2022-09-12T16:31:10;20.60;99.90
2935;DHT22;2462;51.456;7.248;2022-09-12T16:33:37;20.60;99.90
2935;DHT22;2462;51.456;7.248;2022-09-12T16:36:08;20.60;99.90
2935;DHT22;2462;51.456;7.248;2022-09-12T16:38:38;20.50;99.90
2935;DHT22;2462;51.456;7.248;2022-09-12T16:41:05;20.50;99.90
2935;DHT22;2462;51.456;7.248;2022-09-12T16:43:33;20.50;99.90
2935;DHT22;2462;51.456;7.248;2022-09-12T16:46:05;20.50;99.90
2935;DHT22;2462;51.456;7.248;2022-09-12T16:48:31;20.50;99.90
2935;DHT22;2462;51.456;7.248;2022-09-12T16:50:58;20.40;99.90
2935;DHT22;2462;51.456;7.248;2022-09-12T16:53:29;20.40;99.90
2935;DHT22;2462;51.456;7.248;2022-09-12T16:55:56;20.40;99.90
2935;DHT22;2462;51.456;7.248;2022-09-12T16:58:21;20.40;99.90
2935;DHT22;2462;51.456;7.248;2022-09-12T17:00:47;20.40;99.90
2935;DHT22;2462;51.456;7.248;2022-09-12T17:03:12;20.30;99.90
2935;DHT22;2462;51.456;7.248;2022-09-12T17:05:38;20.30;99.90
2935;DHT22;2462;51.456;7.248;2022-09-12T17:08:03;20.30;99.90
2935;DHT22;2462;51.456;7.248;2022-09-12T17:10:29;20.30;99.90
2935;DHT22;2462;51.456;7.248;2022-09-12T17:12:55;20.30;99.90
2935;DHT22;2462;51.456;7.248;2022-09-12T17:15:22;20.30;99.90
2935;DHT22;2462;51.456;7.248;2022-09-12T17:17:47;20.30;99.90
2935;DHT22;2462;51.456;7.248;2022-09-12T17:20:13;20.20;99.90
2935;DHT22;2462;51.456;7.248;2022-09-12T17:22:38;20.20;99.90
2935;DHT22;2462;51.456;7.248;2022-09-12T17:25:04;20.20;99.90
2935;DHT22;2462;51.456;7.248;2022-09-12T17:27:30;20.20;99.90
2935;DHT22;2462;51.456;7.248;2022-09-12T17:29:55;20.20;99.90
2935;DHT22;2462;51.456;7.248;2022-09-12T17:32:21;20.10;99.90
2935;DHT22;2462;51.456;7.248;2022-09-12T17:34:46;20.10;99.90
2935;DHT22;2462;51.456;7.248;2022-09-12T17:37:12;20.10;99.90
2935;DHT22;2462;51.456;7.248;2022-09-12T17:39:38;20.10;99.90
2935;DHT22;2462;51.456;7.248;2022-09-12T17:42:04;20.00;99.90
2935;DHT22;2462;51.456;7.248;2022-09-12T17:44:32;20.00;99.90
2935;DHT22;2462;51.456;7.248;2022-09-12T17:46:58;20.00;99.90
2935;DHT22;2462;51.456;7.248;2022-09-12T17:49:24;20.00;99.90
2935;DHT22;2462;51.456;7.248;2022-09-12T17:51:50;19.90;99.90
2935;DHT22;2462;51.456;7.248;2022-09-12T17:54:17;19.90;99.90
2935;DHT22;2462;51.456;7.248;2022-09-12T17:56:45;19.90;99.90
2935;DHT22;2462;51.456;7.248;2022-09-12T17:59:16;19.80;99.90
2935;DHT22;2462;51.456;7.248;2022-09-12T18:01:42;19.80;99.90
2935;DHT22;2462;51.456;7.248;2022-09-12T18:04:27;19.80;99.90
2935;DHT22;2462;51.456;7.248;2022-09-12T18:06:52;19.80;99.90
2935;DHT22;2462;51.456;7.248;2022-09-12T18:09:22;19.80;99.90
2935;DHT22;2462;51.456;7.248;2022-09-12T18:11:50;19.70;99.90
2935;DHT22;2462;51.456;7.248;2022-09-12T18:14:16;19.70;99.90
2935;DHT22;2462;51.456;7.248;2022-09-12T18:16:42;19.70;99.90
2935;DHT22;2462;51.456;7.248;2022-09-12T18:19:08;19.70;99.90
2935;DHT22;2462;51.456;7.248;2022-09-12T18:21:34;19.60;99.90
2935;DHT22;2462;51.456;7.248;2022-09-12T18:24:00;19.70;99.90
2935;DHT22;2462;51.456;7.248;2022-09-12T18:26:27;19.60;99.90
2935;DHT22;2462;51.456;7.248;2022-09-12T18:28:53;19.60;99.90
2935;DHT22;2462;51.456;7.248;2022-09-12T18:31:20;19.60;99.90
2935;DHT22;2462;51.456;7.248;2022-09-12T18:33:46;19.60;99.90
2935;DHT22;2462;51.456;7.248;2022-09-12T18:36:13;19.50;99.90
2935;DHT22;2462;51.456;7.248;2022-09-12T18:38:39;19.50;99.90
2935;DHT22;2462;51.456;7.248;2022-09-12T18:41:12;19.50;99.90
2935;DHT22;2462;51.456;7.248;2022-09-12T18:43:39;19.50;99.90
2935;DHT22;2462;51.456;7.248;2022-09-12T18:46:06;19.40;99.90
2935;DHT22;2462;51.456;7.248;2022-09-12T18:48:32;19.40;99.90
2935;DHT22;2462;51.456;7.248;2022-09-12T18:51:06;19.40;99.90